sensor_id;sensor_type;location;lat;lon;timestamp;P1;durP1;ratioP1;P2;durP2;ratioP2
16039;SDS011;8124;48.634;8.120;2023-05-21T00:03:43;51.40;;;44.50;;
16039;SDS011;8124;48.634;8.120;2023-05-21T00:08:47;52.83;;;44.63;;
16039;SDS011;8124;48.634;8.120;2023-05-21T00:13:50;53.13;;;45.95;;
16039;SDS011;8124;48.634;8.120;2023-05-21T00:18:54;52.90;;;45.38;;
16039;SDS011;8124;48.634;8.120;2023-05-21T00:23:58;50.83;;;45.22;;
16039;SDS011;8124;48.634;8.120;2023-05-21T00:29:01;54.85;;;44.80;;
16039;SDS011;8124;48.634;8.120;2023-05-21T00:34:05;50.60;;;43.33;;
16039;SDS011;8124;48.634;8.120;2023-05-21T00:39:08;48.65;;;42.72;;
16039;SDS011;8124;48.634;8.120;2023-05-21T00:44:11;48.95;;;43.28;;
16039;SDS011;8124;48.634;8.120;2023-05-21T00:49:18;50.95;;;44.47;;
16039;SDS011;8124;48.634;8.120;2023-05-21T00:54:22;49.75;;;43.45;;
16039;SDS011;8124;48.634;8.120;2023-05-21T00:59:25;50.20;;;43.83;;
16039;SDS011;8124;48.634;8.120;2023-05-21T01:04:30;50.33;;;44.35;;
16039;SDS011;8124;48.634;8.120;2023-05-21T01:09:33;48.22;;;43.00;;
16039;SDS011;8124;48.634;8.120;2023-05-21T01:14:36;51.58;;;45.85;;
16039;SDS011;8124;48.634;8.120;2023-05-21T01:19:41;52.55;;;44.83;;
16039;SDS011;8124;48.634;8.120;2023-05-21T01:24:48;51.50;;;44.85;;
16039;SDS011;8124;48.634;8.120;2023-05-21T01:29:52;53.97;;;45.05;;
16039;SDS011;8124;48.634;8.120;2023-05-21T01:34:59;50.03;;;44.38;;
16039;SDS011;8124;48.634;8.120;2023-05-21T01:40:09;51.70;;;46.00;;
16039;SDS011;8124;48.634;8.120;2023-05-21T01:45:16;50.78;;;45.17;;
16039;SDS011;8124;48.634;8.120;2023-05-21T01:50:21;50.45;;;44.88;;
16039;SDS011;8124;48.634;8.120;2023-05-21T01:55:26;53.15;;;44.83;;
16039;SDS011;8124;48.634;8.120;2023-05-21T02:00:31;52.20;;;45.00;;
16039;SDS011;8124;48.634;8.120;2023-05-21T02:05:34;50.20;;;44.42;;
16039;SDS011;8124;48.634;8.120;2023-05-21T02:10:40;52.08;;;45.03;;
16039;SDS011;8124;48.634;8.120;2023-05-21T02:15:43;50.05;;;44.55;;
16039;SDS011;8124;48.634;8.120;2023-05-21T02:20:47;51.42;;;44.90;;
16039;SDS011;8124;48.634;8.120;2023-05-21T02:25:52;50.83;;;44.95;;
16039;SDS011;8124;48.634;8.120;2023-05-21T02:30:55;50.58;;;44.03;;
16039;SDS011;8124;48.634;8.120;2023-05-21T02:35:58;48.63;;;43.08;;
16039;SDS011;8124;48.634;8.120;2023-05-21T02:41:03;52.50;;;44.63;;
16039;SDS011;8124;48.634;8.120;2023-05-21T02:46:06;50.85;;;45.33;;
16039;SDS011;8124;48.634;8.120;2023-05-21T02:51:09;50.45;;;44.28;;
16039;SDS011;8124;48.634;8.120;2023-05-21T02:56:13;51.15;;;45.42;;
16039;SDS011;8124;48.634;8.120;2023-05-21T03:01:16;51.80;;;44.83;;
16039;SDS011;8124;48.634;8.120;2023-05-21T03:06:19;52.63;;;45.33;;
16039;SDS011;8124;48.634;8.120;2023-05-21T03:11:24;52.40;;;45.80;;
16039;SDS011;8124;48.634;8.120;2023-05-21T03:16:27;54.10;;;45.25;;
16039;SDS011;8124;48.634;8.120;2023-05-21T03:21:30;57.53;;;50.70;;
16039;SDS011;8124;48.634;8.120;2023-05-21T03:26:35;51.50;;;45.42;;
16039;SDS011;8124;48.634;8.120;2023-05-21T03:31:38;52.47;;;46.38;;
16039;SDS011;8124;48.634;8.120;2023-05-21T03:36:44;54.50;;;45.72;;
16039;SDS011;8124;48.634;8.120;2023-05-21T03:41:50;51.03;;;44.90;;
16039;SDS011;8124;48.634;8.120;2023-05-21T03:47:00;52.75;;;45.92;;
16039;SDS011;8124;48.634;8.120;2023-05-21T03:52:07;51.08;;;44.75;;
16039;SDS011;8124;48.634;8.120;2023-05-21T04:02:26;53.10;;;45.25;;
16039;SDS011;8124;48.634;8.120;2023-05-21T04:07:29;52.53;;;44.83;;
16039;SDS011;8124;48.634;8.120;2023-05-21T04:12:35;53.80;;;45.42;;
16039;SDS011;8124;48.634;8.120;2023-05-21T04:17:38;53.25;;;45.42;;
16039;SDS011;8124;48.634;8.120;2023-05-21T04:22:42;50.85;;;44.72;;
16039;SDS011;8124;48.634;8.120;2023-05-21T04:27:46;52.45;;;45.38;;
16039;SDS011;8124;48.634;8.120;2023-05-21T04:32:50;50.83;;;43.58;;
16039;SDS011;8124;48.634;8.120;2023-05-21T04:37:55;50.88;;;44.72;;
16039;SDS011;8124;48.634;8.120;2023-05-21T04:42:59;54.72;;;45.60;;
16039;SDS011;8124;48.634;8.120;2023-05-21T04:48:03;52.45;;;45.42;;
16039;SDS011;8124;48.634;8.120;2023-05-21T04:53:06;53.03;;;45.30;;
16039;SDS011;8124;48.634;8.120;2023-05-21T04:58:11;50.72;;;43.55;;
16039;SDS011;8124;48.634;8.120;2023-05-21T05:03:22;52.65;;;45.65;;
16039;SDS011;8124;48.634;8.120;2023-05-21T05:08:25;52.75;;;45.55;;
16039;SDS011;8124;48.634;8.120;2023-05-21T05:13:29;56.65;;;46.80;;
16039;SDS011;8124;48.634;8.120;2023-05-21T05:18:32;52.92;;;46.13;;
16039;SDS011;8124;48.634;8.120;2023-05-21T05:23:36;54.90;;;45.05;;
16039;SDS011;8124;48.634;8.120;2023-05-21T05:28:43;55.40;;;46.05;;
16039;SDS011;8124;48.634;8.120;2023-05-21T05:33:46;54.42;;;45.97;;
16039;SDS011;8124;48.634;8.120;2023-05-21T05:38:50;54.63;;;45.72;;
16039;SDS011;8124;48.634;8.120;2023-05-21T05:43:54;53.72;;;45.00;;
16039;SDS011;8124;48.634;8.120;2023-05-21T05:49:00;53.63;;;46.17;;
16039;SDS011;8124;48.634;8.120;2023-05-21T05:54:03;53.78;;;46.30;;
16039;SDS011;8124;48.634;8.120;2023-05-21T05:59:08;51.20;;;44.60;;
16039;SDS011;8124;48.634;8.120;2023-05-21T06:04:12;55.28;;;46.17;;
16039;SDS011;8124;48.634;8.120;2023-05-21T06:09:15;60.17;;;45.75;;
16039;SDS011;8124;48.634;8.120;2023-05-21T06:14:20;59.40;;;46.80;;
16039;SDS011;8124;48.634;8.120;2023-05-21T06:19:23;55.53;;;46.78;;
16039;SDS011;8124;48.634;8.120;2023-05-21T06:24:26;56.88;;;47.70;;
16039;SDS011;8124;48.634;8.120;2023-05-21T06:29:31;54.90;;;47.17;;
16039;SDS011;8124;48.634;8.120;2023-05-21T06:34:35;56.90;;;47.72;;
16039;SDS011;8124;48.634;8.120;2023-05-21T06:39:38;54.85;;;47.13;;
16039;SDS011;8124;48.634;8.120;2023-05-21T06:44:43;54.70;;;47.72;;
16039;SDS011;8124;48.634;8.120;2023-05-21T06:50:10;57.20;;;49.97;;
16039;SDS011;8124;48.634;8.120;2023-05-21T06:55:13;65.45;;;51.17;;
16039;SDS011;8124;48.634;8.120;2023-05-21T07:00:36;59.13;;;49.50;;
16039;SDS011;8124;48.634;8.120;2023-05-21T07:05:39;57.45;;;48.42;;
16039;SDS011;8124;48.634;8.120;2023-05-21T07:10:42;60.42;;;48.47;;
16039;SDS011;8124;48.634;8.120;2023-05-21T07:15:47;58.60;;;49.72;;
16039;SDS011;8124;48.634;8.120;2023-05-21T07:20:51;58.63;;;49.08;;
16039;SDS011;8124;48.634;8.120;2023-05-21T07:25:54;58.47;;;49.38;;
16039;SDS011;8124;48.634;8.120;2023-05-21T07:30:59;61.08;;;48.55;;
16039;SDS011;8124;48.634;8.120;2023-05-21T07:36:09;59.45;;;49.65;;
16039;SDS011;8124;48.634;8.120;2023-05-21T07:41:13;59.85;;;48.85;;
16039;SDS011;8124;48.634;8.120;2023-05-21T07:46:21;59.10;;;48.45;;
16039;SDS011;8124;48.634;8.120;2023-05-21T07:51:27;62.00;;;50.60;;
16039;SDS011;8124;48.634;8.120;2023-05-21T07:56:31;58.03;;;49.33;;
16039;SDS011;8124;48.634;8.120;2023-05-21T08:01:35;62.95;;;49.10;;
16039;SDS011;8124;48.634;8.120;2023-05-21T08:06:38;59.95;;;48.95;;
16039;SDS011;8124;48.634;8.120;2023-05-21T08:11:42;59.78;;;49.60;;
16039;SDS011;8124;48.634;8.120;2023-05-21T08:16:47;57.70;;;49.03;;
16039;SDS011;8124;48.634;8.120;2023-05-21T08:21:50;60.03;;;49.42;;
16039;SDS011;8124;48.634;8.120;2023-05-21T08:26:55;56.75;;;48.40;;
16039;SDS011;8124;48.634;8.120;2023-05-21T08:31:59;57.50;;;48.25;;
16039;SDS011;8124;48.634;8.120;2023-05-21T08:37:03;59.50;;;49.25;;
16039;SDS011;8124;48.634;8.120;2023-05-21T08:42:26;59.70;;;48.90;;
16039;SDS011;8124;48.634;8.120;2023-05-21T08:47:41;57.67;;;49.60;;
16039;SDS011;8124;48.634;8.120;2023-05-21T08:52:46;59.13;;;49.15;;
16039;SDS011;8124;48.634;8.120;2023-05-21T08:57:49;59.72;;;49.78;;
16039;SDS011;8124;48.634;8.120;2023-05-21T09:02:57;58.15;;;49.40;;
16039;SDS011;8124;48.634;8.120;2023-05-21T09:08:04;59.88;;;48.63;;
16039;SDS011;8124;48.634;8.120;2023-05-21T09:13:17;57.75;;;49.38;;
16039;SDS011;8124;48.634;8.120;2023-05-21T09:18:24;56.65;;;48.20;;
16039;SDS011;8124;48.634;8.120;2023-05-21T09:23:36;57.50;;;48.75;;
16039;SDS011;8124;48.634;8.120;2023-05-21T09:28:39;62.20;;;49.10;;
16039;SDS011;8124;48.634;8.120;2023-05-21T09:33:48;53.50;;;47.35;;
16039;SDS011;8124;48.634;8.120;2023-05-21T09:38:53;58.83;;;50.35;;
16039;SDS011;8124;48.634;8.120;2023-05-21T09:43:59;59.20;;;49.92;;
16039;SDS011;8124;48.634;8.120;2023-05-21T09:49:05;61.30;;;48.95;;
16039;SDS011;8124;48.634;8.120;2023-05-21T09:54:16;60.92;;;50.45;;
16039;SDS011;8124;48.634;8.120;2023-05-21T09:59:19;56.15;;;48.88;;
16039;SDS011;8124;48.634;8.120;2023-05-21T10:04:22;62.42;;;49.60;;
16039;SDS011;8124;48.634;8.120;2023-05-21T10:09:27;63.05;;;51.50;;
16039;SDS011;8124;48.634;8.120;2023-05-21T10:14:31;58.72;;;48.25;;
16039;SDS011;8124;48.634;8.120;2023-05-21T10:19:36;58.47;;;50.50;;
16039;SDS011;8124;48.634;8.120;2023-05-21T10:24:41;56.38;;;48.80;;
16039;SDS011;8124;48.634;8.120;2023-05-21T10:29:44;59.05;;;49.63;;
16039;SDS011;8124;48.634;8.120;2023-05-21T10:34:49;55.75;;;48.80;;
16039;SDS011;8124;48.634;8.120;2023-05-21T10:39:56;56.00;;;48.28;;
16039;SDS011;8124;48.634;8.120;2023-05-21T10:45:04;55.50;;;48.53;;
16039;SDS011;8124;48.634;8.120;2023-05-21T10:50:17;57.90;;;47.92;;
16039;SDS011;8124;48.634;8.120;2023-05-21T10:55:36;55.97;;;48.42;;
16039;SDS011;8124;48.634;8.120;2023-05-21T11:00:47;56.13;;;48.22;;
16039;SDS011;8124;48.634;8.120;2023-05-21T11:05:51;53.80;;;47.58;;
16039;SDS011;8124;48.634;8.120;2023-05-21T11:10:58;55.95;;;48.53;;
16039;SDS011;8124;48.634;8.120;2023-05-21T11:16:03;55.33;;;49.08;;
16039;SDS011;8124;48.634;8.120;2023-05-21T11:21:15;55.95;;;47.90;;
16039;SDS011;8124;48.634;8.120;2023-05-21T11:26:24;57.20;;;48.40;;
16039;SDS011;8124;48.634;8.120;2023-05-21T11:31:29;60.45;;;50.00;;
16039;SDS011;8124;48.634;8.120;2023-05-21T11:36:39;54.03;;;48.15;;
16039;SDS011;8124;48.634;8.120;2023-05-21T11:46:58;53.30;;;47.42;;
16039;SDS011;8124;48.634;8.120;2023-05-21T11:52:01;53.97;;;47.70;;
16039;SDS011;8124;48.634;8.120;2023-05-21T11:57:07;52.88;;;47.15;;
16039;SDS011;8124;48.634;8.120;2023-05-21T12:02:12;56.42;;;47.85;;
16039;SDS011;8124;48.634;8.120;2023-05-21T12:07:17;52.50;;;46.90;;
16039;SDS011;8124;48.634;8.120;2023-05-21T12:12:23;54.97;;;47.47;;
16039;SDS011;8124;48.634;8.120;2023-05-21T12:17:42;52.65;;;46.92;;
16039;SDS011;8124;48.634;8.120;2023-05-21T12:22:47;53.03;;;47.20;;
16039;SDS011;8124;48.634;8.120;2023-05-21T12:27:51;52.95;;;47.17;;
16039;SDS011;8124;48.634;8.120;2023-05-21T12:32:59;53.30;;;47.50;;
16039;SDS011;8124;48.634;8.120;2023-05-21T12:38:05;57.65;;;47.00;;
16039;SDS011;8124;48.634;8.120;2023-05-21T12:43:11;52.47;;;45.63;;
16039;SDS011;8124;48.634;8.120;2023-05-21T12:48:14;51.42;;;45.80;;
16039;SDS011;8124;48.634;8.120;2023-05-21T12:53:17;52.25;;;45.42;;
16039;SDS011;8124;48.634;8.120;2023-05-21T12:58:21;52.08;;;46.47;;
16039;SDS011;8124;48.634;8.120;2023-05-21T13:03:25;51.55;;;45.75;;
16039;SDS011;8124;48.634;8.120;2023-05-21T13:08:28;53.58;;;46.08;;
16039;SDS011;8124;48.634;8.120;2023-05-21T13:13:32;52.60;;;46.92;;
16039;SDS011;8124;48.634;8.120;2023-05-21T13:18:35;51.83;;;46.17;;
16039;SDS011;8124;48.634;8.120;2023-05-21T13:23:38;54.38;;;45.78;;
16039;SDS011;8124;48.634;8.120;2023-05-21T13:28:42;52.10;;;46.22;;
16039;SDS011;8124;48.634;8.120;2023-05-21T13:33:45;51.13;;;45.55;;
16039;SDS011;8124;48.634;8.120;2023-05-21T13:38:48;53.72;;;46.30;;
16039;SDS011;8124;48.634;8.120;2023-05-21T13:43:52;52.92;;;45.90;;
16039;SDS011;8124;48.634;8.120;2023-05-21T13:48:55;52.15;;;46.45;;
16039;SDS011;8124;48.634;8.120;2023-05-21T13:53:58;51.70;;;45.97;;
16039;SDS011;8124;48.634;8.120;2023-05-21T13:59:03;50.75;;;45.35;;
16039;SDS011;8124;48.634;8.120;2023-05-21T14:04:06;52.38;;;45.88;;
16039;SDS011;8124;48.634;8.120;2023-05-21T14:09:09;52.83;;;46.17;;
16039;SDS011;8124;48.634;8.120;2023-05-21T14:14:13;52.35;;;46.00;;
16039;SDS011;8124;48.634;8.120;2023-05-21T14:19:19;51.38;;;45.88;;
16039;SDS011;8124;48.634;8.120;2023-05-21T14:24:22;51.80;;;46.20;;
16039;SDS011;8124;48.634;8.120;2023-05-21T14:29:26;50.85;;;45.35;;
16039;SDS011;8124;48.634;8.120;2023-05-21T14:34:29;51.17;;;45.63;;
16039;SDS011;8124;48.634;8.120;2023-05-21T14:39:32;50.78;;;45.28;;
16039;SDS011;8124;48.634;8.120;2023-05-21T14:44:37;51.30;;;45.70;;
16039;SDS011;8124;48.634;8.120;2023-05-21T14:49:39;50.95;;;44.80;;
16039;SDS011;8124;48.634;8.120;2023-05-21T14:54:42;50.85;;;45.35;;
16039;SDS011;8124;48.634;8.120;2023-05-21T14:59:47;51.28;;;45.78;;
16039;SDS011;8124;48.634;8.120;2023-05-21T15:04:50;51.17;;;45.55;;
16039;SDS011;8124;48.634;8.120;2023-05-21T15:09:53;51.53;;;46.03;;
16039;SDS011;8124;48.634;8.120;2023-05-21T15:14:57;51.28;;;45.45;;
16039;SDS011;8124;48.634;8.120;2023-05-21T15:20:00;52.42;;;46.00;;
16039;SDS011;8124;48.634;8.120;2023-05-21T15:25:05;51.33;;;45.72;;
16039;SDS011;8124;48.634;8.120;2023-05-21T15:30:10;51.08;;;45.67;;
16039;SDS011;8124;48.634;8.120;2023-05-21T15:35:27;51.03;;;45.47;;
16039;SDS011;8124;48.634;8.120;2023-05-21T15:40:30;50.80;;;45.33;;
16039;SDS011;8124;48.634;8.120;2023-05-21T15:45:35;51.45;;;45.92;;
16039;SDS011;8124;48.634;8.120;2023-05-21T15:50:39;50.55;;;45.15;;
16039;SDS011;8124;48.634;8.120;2023-05-21T15:55:47;49.83;;;44.50;;
16039;SDS011;8124;48.634;8.120;2023-05-21T16:00:52;52.15;;;45.90;;
16039;SDS011;8124;48.634;8.120;2023-05-21T16:06:01;51.15;;;45.55;;
16039;SDS011;8124;48.634;8.120;2023-05-21T16:11:04;50.75;;;45.30;;
16039;SDS011;8124;48.634;8.120;2023-05-21T16:16:10;51.08;;;45.58;;
16039;SDS011;8124;48.634;8.120;2023-05-21T16:21:14;51.72;;;46.13;;
16039;SDS011;8124;48.634;8.120;2023-05-21T16:26:18;51.17;;;45.58;;
16039;SDS011;8124;48.634;8.120;2023-05-21T16:31:23;50.78;;;45.20;;
16039;SDS011;8124;48.634;8.120;2023-05-21T16:36:26;50.70;;;45.15;;
16039;SDS011;8124;48.634;8.120;2023-05-21T16:41:29;50.65;;;45.25;;
16039;SDS011;8124;48.634;8.120;2023-05-21T16:46:33;50.42;;;45.03;;
16039;SDS011;8124;48.634;8.120;2023-05-21T16:51:36;50.42;;;45.03;;
16039;SDS011;8124;48.634;8.120;2023-05-21T16:56:39;50.88;;;45.08;;
16039;SDS011;8124;48.634;8.120;2023-05-21T17:01:43;50.22;;;44.92;;
16039;SDS011;8124;48.634;8.120;2023-05-21T17:06:46;50.60;;;45.22;;
16039;SDS011;8124;48.634;8.120;2023-05-21T17:11:49;51.10;;;45.67;;
16039;SDS011;8124;48.634;8.120;2023-05-21T17:16:54;50.97;;;45.38;;
16039;SDS011;8124;48.634;8.120;2023-05-21T17:21:57;51.10;;;45.70;;
16039;SDS011;8124;48.634;8.120;2023-05-21T17:26:59;50.28;;;44.92;;
16039;SDS011;8124;48.634;8.120;2023-05-21T17:32:04;50.92;;;45.42;;
16039;SDS011;8124;48.634;8.120;2023-05-21T17:37:07;50.67;;;45.30;;
16039;SDS011;8124;48.634;8.120;2023-05-21T17:42:10;50.75;;;45.35;;
16039;SDS011;8124;48.634;8.120;2023-05-21T17:47:15;52.17;;;46.10;;
16039;SDS011;8124;48.634;8.120;2023-05-21T17:52:18;51.47;;;45.42;;
16039;SDS011;8124;48.634;8.120;2023-05-21T17:57:26;51.22;;;45.63;;
16039;SDS011;8124;48.634;8.120;2023-05-21T18:02:31;51.38;;;45.72;;
16039;SDS011;8124;48.634;8.120;2023-05-21T18:07:34;51.13;;;45.53;;
16039;SDS011;8124;48.634;8.120;2023-05-21T18:12:38;51.38;;;45.88;;
16039;SDS011;8124;48.634;8.120;2023-05-21T18:17:50;52.42;;;46.72;;
16039;SDS011;8124;48.634;8.120;2023-05-21T18:22:53;50.60;;;45.25;;
16039;SDS011;8124;48.634;8.120;2023-05-21T18:27:56;51.38;;;44.47;;
16039;SDS011;8124;48.634;8.120;2023-05-21T18:33:01;51.40;;;45.10;;
16039;SDS011;8124;48.634;8.120;2023-05-21T18:38:04;51.38;;;45.15;;
16039;SDS011;8124;48.634;8.120;2023-05-21T18:43:10;51.75;;;46.10;;
16039;SDS011;8124;48.634;8.120;2023-05-21T18:48:15;51.25;;;45.80;;
16039;SDS011;8124;48.634;8.120;2023-05-21T18:53:18;50.95;;;45.55;;
16039;SDS011;8124;48.634;8.120;2023-05-21T18:58:21;51.25;;;44.97;;
16039;SDS011;8124;48.634;8.120;2023-05-21T19:03:26;51.25;;;45.83;;
16039;SDS011;8124;48.634;8.120;2023-05-21T19:08:29;50.30;;;44.85;;
16039;SDS011;8124;48.634;8.120;2023-05-21T19:13:32;51.13;;;45.63;;
16039;SDS011;8124;48.634;8.120;2023-05-21T19:18:37;51.40;;;45.90;;
16039;SDS011;8124;48.634;8.120;2023-05-21T19:23:43;51.97;;;46.38;;
16039;SDS011;8124;48.634;8.120;2023-05-21T19:28:54;51.40;;;45.55;;
16039;SDS011;8124;48.634;8.120;2023-05-21T19:33:58;51.35;;;45.65;;
16039;SDS011;8124;48.634;8.120;2023-05-21T19:39:01;51.35;;;45.92;;
16039;SDS011;8124;48.634;8.120;2023-05-21T19:44:05;51.15;;;45.65;;
16039;SDS011;8124;48.634;8.120;2023-05-21T19:49:09;52.55;;;46.58;;
16039;SDS011;8124;48.634;8.120;2023-05-21T19:54:14;51.22;;;45.53;;
16039;SDS011;8124;48.634;8.120;2023-05-21T19:59:17;51.80;;;46.15;;
16039;SDS011;8124;48.634;8.120;2023-05-21T20:04:21;51.78;;;46.17;;
16039;SDS011;8124;48.634;8.120;2023-05-21T20:09:24;51.40;;;45.67;;
16039;SDS011;8124;48.634;8.120;2023-05-21T20:14:27;51.25;;;45.70;;
16039;SDS011;8124;48.634;8.120;2023-05-21T20:19:35;51.08;;;45.58;;
16039;SDS011;8124;48.634;8.120;2023-05-21T20:24:38;51.35;;;45.78;;
16039;SDS011;8124;48.634;8.120;2023-05-21T20:29:41;51.67;;;46.15;;
16039;SDS011;8124;48.634;8.120;2023-05-21T20:34:45;50.42;;;45.00;;
16039;SDS011;8124;48.634;8.120;2023-05-21T20:40:03;50.60;;;45.10;;
16039;SDS011;8124;48.634;8.120;2023-05-21T20:45:08;50.53;;;45.00;;
16039;SDS011;8124;48.634;8.120;2023-05-21T20:50:14;50.25;;;44.45;;
16039;SDS011;8124;48.634;8.120;2023-05-21T20:55:18;49.30;;;43.90;;
16039;SDS011;8124;48.634;8.120;2023-05-21T21:00:22;48.85;;;43.60;;
16039;SDS011;8124;48.634;8.120;2023-05-21T21:05:26;50.80;;;44.75;;
16039;SDS011;8124;48.634;8.120;2023-05-21T21:10:29;50.45;;;44.95;;
16039;SDS011;8124;48.634;8.120;2023-05-21T21:15:33;49.88;;;44.58;;
16039;SDS011;8124;48.634;8.120;2023-05-21T21:20:38;49.50;;;44.08;;
16039;SDS011;8124;48.634;8.120;2023-05-21T21:25:42;49.67;;;44.28;;
16039;SDS011;8124;48.634;8.120;2023-05-21T21:30:46;52.78;;;44.72;;
16039;SDS011;8124;48.634;8.120;2023-05-21T21:35:50;49.90;;;44.50;;
16039;SDS011;8124;48.634;8.120;2023-05-21T21:40:53;51.20;;;44.00;;
16039;SDS011;8124;48.634;8.120;2023-05-21T21:45:56;51.63;;;44.80;;
16039;SDS011;8124;48.634;8.120;2023-05-21T21:51:00;52.05;;;45.92;;
16039;SDS011;8124;48.634;8.120;2023-05-21T21:56:03;55.00;;;46.92;;
16039;SDS011;8124;48.634;8.120;2023-05-21T22:01:06;51.88;;;45.75;;
16039;SDS011;8124;48.634;8.120;2023-05-21T22:06:11;50.80;;;45.22;;
16039;SDS011;8124;48.634;8.120;2023-05-21T22:11:14;50.67;;;45.17;;
16039;SDS011;8124;48.634;8.120;2023-05-21T22:16:17;49.40;;;44.10;;
16039;SDS011;8124;48.634;8.120;2023-05-21T22:21:22;51.47;;;45.30;;
16039;SDS011;8124;48.634;8.120;2023-05-21T22:26:27;49.47;;;44.13;;
16039;SDS011;8124;48.634;8.120;2023-05-21T22:31:30;51.08;;;45.20;;
16039;SDS011;8124;48.634;8.120;2023-05-21T22:36:35;50.50;;;44.65;;
16039;SDS011;8124;48.634;8.120;2023-05-21T22:41:39;51.03;;;45.03;;
16039;SDS011;8124;48.634;8.120;2023-05-21T22:46:42;52.08;;;44.80;;
16039;SDS011;8124;48.634;8.120;2023-05-21T22:51:46;49.67;;;44.28;;
16039;SDS011;8124;48.634;8.120;2023-05-21T22:56:51;49.90;;;44.10;;
16039;SDS011;8124;48.634;8.120;2023-05-21T23:01:54;51.85;;;44.47;;
16039;SDS011;8124;48.634;8.120;2023-05-21T23:06:58;47.83;;;42.60;;
16039;SDS011;8124;48.634;8.120;2023-05-21T23:12:02;49.53;;;43.75;;
16039;SDS011;8124;48.634;8.120;2023-05-21T23:17:05;48.92;;;43.40;;
16039;SDS011;8124;48.634;8.120;2023-05-21T23:22:09;49.47;;;44.08;;
16039;SDS011;8124;48.634;8.120;2023-05-21T23:27:12;50.72;;;44.70;;
16039;SDS011;8124;48.634;8.120;2023-05-21T23:32:16;48.45;;;43.15;;
16039;SDS011;8124;48.634;8.120;2023-05-21T23:37:21;49.60;;;44.20;;
16039;SDS011;8124;48.634;8.120;2023-05-21T23:42:24;49.28;;;43.60;;
16039;SDS011;8124;48.634;8.120;2023-05-21T23:47:27;48.85;;;43.50;;
16039;SDS011;8124;48.634;8.120;2023-05-21T23:52:31;52.78;;;43.63;;
16039;SDS011;8124;48.634;8.120;2023-05-21T23:57:34;48.72;;;43.42;;
